Wan Hai 508 — 9VJJ6 — position and weather

sailwx.info

Track history (hours):
 
Tides and Currents Weather Stations Pressure Air Temp Water Temp Dewpoint Dewpoint Depression Visibility Wind Speed Wind Dir Waves Ship Positions

Wan Hai 508

Last reported at 2015-Feb-27 10:33 UTC. Time now 2015-Mar-05 02:41 UTC.
Position N 02°14' E 101°57'.

Length 269 m; draft 8.2 m.

Type: Cargo ship. MMSI: 565567000.

Date/timePositionNaut miles runAvg speedWind from/ knotsBaromVisibWave heightAir tempDewpointWater temp
2015-Feb-27 10:33N 02°14' E 101°57'1615.6
2015-Feb-27 09:33N 02°04' E 102°09'1615.5
2015-Feb-27 08:31N 01°55' E 102°23'1515.2
2015-Feb-27 07:32N 01°49' E 102°36'1515.4
2015-Feb-27 06:32N 01°43' E 102°50'6112.2
2015-Feb-27 01:31N 01°17' E 103°46'0 0.0
2015-Feb-26 22:19N 01°17' E 103°46'6 0.6
2015-Feb-26 11:32N 01°12' E 103°50'3 3.5
2015-Feb-26 10:33N 01°16' E 103°50'0 0.0
2015-Feb-26 09:28N 01°16' E 103°50'0 0.0
2015-Feb-26 08:25N 01°16' E 103°50'0 0.0
2015-Feb-26 06:28N 01°16' E 103°50'0 0.0
2015-Feb-26 05:22N 01°16' E 103°50'0 0.0
2015-Feb-26 04:25N 01°16' E 103°50'0 0.0
2015-Feb-26 02:04N 01°16' E 103°50'0 0.0
2015-Feb-26 01:22N 01°16' E 103°50'0 0.0
2015-Feb-26 00:04N 01°16' E 103°50'0 0.0
2015-Feb-25 23:28N 01°16' E 103°50'0 0.0
2015-Feb-25 22:22N 01°16' E 103°50'0 0.0
2015-Feb-25 21:31N 01°16' E 103°50'0 0.0
2015-Feb-25 20:31N 01°16' E 103°50'0 0.0
2015-Feb-25 19:25N 01°16' E 103°50'0 0.0
2015-Feb-25 18:25N 01°16' E 103°50'0 0.0
2015-Feb-25 17:31N 01°16' E 103°50'0 0.0
2015-Feb-25 16:31N 01°16' E 103°50'0 0.0
2015-Feb-25 15:31N 01°16' E 103°50'0 0.0
2015-Feb-25 14:33N 01°16' E 103°50'2 1.8
2015-Feb-25 13:34N 01°15' E 103°51'2 2.2
2015-Feb-25 12:33N 01°14' E 103°53'6 6.0
2015-Feb-25 11:33N 01°10' E 103°48'9 8.9
2015-Feb-25 10:32N 01°04' E 103°41'  
Track history (hours):
 
Tides and Currents Weather Stations Pressure Air Temp Water Temp Dewpoint Dewpoint Depression Visibility Wind Speed Wind Dir Waves Ship Positions

Wan Hai 508

Last reported at 2015-Feb-27 10:33 UTC. Time now 2015-Mar-05 02:41 UTC.
Position N 02°14' E 101°57'.

Length 269 m; draft 8.2 m.

Type: Cargo ship. MMSI: 565567000.

Date/timePositionNaut miles runAvg speedWind from/ knotsBaromVisibWave heightAir tempDewpointWater temp
2015-Feb-27 10:33N 02°14' E 101°57'1615.6
2015-Feb-27 09:33N 02°04' E 102°09'1615.5
2015-Feb-27 08:31N 01°55' E 102°23'1515.2
2015-Feb-27 07:32N 01°49' E 102°36'1515.4
2015-Feb-27 06:32N 01°43' E 102°50'6112.2
2015-Feb-27 01:31N 01°17' E 103°46'0 0.0
2015-Feb-26 22:19N 01°17' E 103°46'6 0.6
2015-Feb-26 11:32N 01°12' E 103°50'3 3.5
2015-Feb-26 10:33N 01°16' E 103°50'0 0.0
2015-Feb-26 09:28N 01°16' E 103°50'0 0.0
2015-Feb-26 08:25N 01°16' E 103°50'0 0.0
2015-Feb-26 06:28N 01°16' E 103°50'0 0.0
2015-Feb-26 05:22N 01°16' E 103°50'0 0.0
2015-Feb-26 04:25N 01°16' E 103°50'0 0.0
2015-Feb-26 02:04N 01°16' E 103°50'0 0.0
2015-Feb-26 01:22N 01°16' E 103°50'0 0.0
2015-Feb-26 00:04N 01°16' E 103°50'0 0.0
2015-Feb-25 23:28N 01°16' E 103°50'0 0.0
2015-Feb-25 22:22N 01°16' E 103°50'0 0.0
2015-Feb-25 21:31N 01°16' E 103°50'0 0.0
2015-Feb-25 20:31N 01°16' E 103°50'0 0.0
2015-Feb-25 19:25N 01°16' E 103°50'0 0.0
2015-Feb-25 18:25N 01°16' E 103°50'0 0.0
2015-Feb-25 17:31N 01°16' E 103°50'0 0.0
2015-Feb-25 16:31N 01°16' E 103°50'0 0.0
2015-Feb-25 15:31N 01°16' E 103°50'0 0.0
2015-Feb-25 14:33N 01°16' E 103°50'2 1.8
2015-Feb-25 13:34N 01°15' E 103°51'2 2.2
2015-Feb-25 12:33N 01°14' E 103°53'6 6.0
2015-Feb-25 11:33N 01°10' E 103°48'9 8.9
2015-Feb-25 10:32N 01°04' E 103°41'  

Dump ship's entire track history